CheckWX is a tool to help pilots better visualize weather data.  It is not intended as a substitute for an official pre-flight weather briefing.

19:41:46 UTC

CYQZ METAR
Quesnel Airport
Quesnel, Canada
Current

42 mins ago

CYQZ 271900Z AUTO 18005KT 9SM FEW075 OVC100 03/M01 A2992 RMK SLP156
Observed
Jan-27 @ 19:00 UTC
Wind
  • 180° at 5 KTS
Visibility
9 SM
Flight Rules
VFR
Cloud Levels
  • Few at 7,500' AGL
  • Overcast at 10,000' AGL
Temperature
C / 37°F
Dewpoint
-1°C / 30°F
Humidity
75%
Altimeter
29.92" Hg
Pressure
1013.22 hPa
Previous

2 hours ago

CYQZ 271800Z AUTO 18005KT 9SM OVC075 02/M01 A2990 RMK SLP148
Observed
Jan-27 @ 18:00 UTC
Wind
  • 180° at 5 KTS
Visibility
9 SM
Flight Rules
VFR
Cloud Levels
  • Overcast at 7,500' AGL
Temperature
C / 36°F
Dewpoint
-1°C / 30°F
Humidity
81%
Altimeter
29.9" Hg
Pressure
1012.52 hPa
Previous

3 hours ago

CYQZ 271700Z AUTO 15007KT 9SM OVC100 03/M02 A2988 RMK SLP140
Observed
Jan-27 @ 17:00 UTC
Wind
  • 150° at 7 KTS
Visibility
9 SM
Flight Rules
VFR
Cloud Levels
  • Overcast at 10,000' AGL
Temperature
C / 37°F
Dewpoint
-2°C / 28°F
Humidity
70%
Altimeter
29.88" Hg
Pressure
1011.82 hPa